Time;durP1;ratioP1;P1;durP2;ratioP2;P2;SDS_P1;SDS_P2;PMS_P1;PMS_P2;Temp;Humidity;BMP_temperature;BMP_pressure;BME280_temperature;BME280_humidity;BME280_pressure;Samples;Min_cycle;Max_cycle;Signal;HPM_P1;HPM_P2
2022/03/30 00:01:56;;;;;;;125.00;39.30;;;8.10;99.30;;;;;;4916614;29;20465;-76
2022/03/30 00:04:22;;;;;;;104.85;36.95;;;8.10;99.20;;;;;;4916717;29;20035;-76
2022/03/30 00:06:48;;;;;;;107.47;37.20;;;8.10;99.30;;;;;;4916715;29;20028;-76
2022/03/30 00:09:14;;;;;;;128.93;39.85;;;8.10;99.50;;;;;;4916587;29;20024;-77
2022/03/30 00:11:39;;;;;;;116.57;39.72;;;8.10;99.40;;;;;;4916476;29;20118;-76
2022/03/30 00:14:06;;;;;;;108.05;37.60;;;8.10;99.70;;;;;;4916100;29;20521;-76
2022/03/30 00:16:33;;;;;;;110.88;39.63;;;8.10;99.20;;;;;;4916499;29;20036;-76
2022/03/30 00:18:59;;;;;;;108.50;38.72;;;8.10;99.40;;;;;;4916145;29;20013;-76
2022/03/30 00:21:25;;;;;;;106.72;39.30;;;8.10;99.50;;;;;;4906088;29;20533;-76
2022/03/30 00:23:52;;;;;;;113.18;40.50;;;8.10;99.60;;;;;;4916477;29;20493;-76
2022/03/30 00:26:18;;;;;;;123.88;40.25;;;8.10;99.40;;;;;;4916335;29;20047;-76
2022/03/30 00:28:44;;;;;;;120.05;41.00;;;8.10;99.20;;;;;;4915887;29;20473;-76
2022/03/30 00:31:11;;;;;;;117.75;39.63;;;8.00;99.00;;;;;;4916296;29;20023;-76
2022/03/30 00:33:37;;;;;;;113.20;39.38;;;8.10;99.50;;;;;;4916155;29;20016;-77
2022/03/30 00:36:03;;;;;;;108.53;37.70;;;8.10;99.80;;;;;;4915865;29;20035;-76
2022/03/30 00:38:29;;;;;;;125.88;40.13;;;8.00;99.30;;;;;;4915936;29;20020;-76
2022/03/30 00:40:55;;;;;;;123.93;40.00;;;8.00;99.40;;;;;;4916148;29;20016;-76
2022/03/30 01:45:35;;;;;;;136.73;43.78;;;8.00;99.90;;;;;;5019614;23;20063;-78
2022/03/30 01:48:01;;;;;;;132.05;44.65;;;8.00;99.90;;;;;;4898713;29;20389;-78
2022/03/30 01:50:29;;;;;;;135.85;43.97;;;8.00;99.90;;;;;;4915152;29;20067;-77
2022/03/30 01:52:55;;;;;;;145.80;43.55;;;8.00;99.70;;;;;;4915113;29;20158;-78
2022/03/30 01:55:21;;;;;;;140.00;43.40;;;8.00;99.90;;;;;;4917738;29;20355;-78
2022/03/30 01:57:47;;;;;;;140.60;43.53;;;8.00;99.90;;;;;;4918907;29;20027;-78
2022/03/30 02:00:16;;;;;;;126.68;43.05;;;8.00;99.90;;;;;;4918656;29;20039;-78
2022/03/30 02:02:42;;;;;;;135.77;45.90;;;8.00;99.90;;;;;;4918932;29;20008;-78
2022/03/30 02:05:08;;;;;;;133.60;43.35;;;8.00;99.90;;;;;;4920201;29;20039;-78
2022/03/30 02:07:36;;;;;;;125.13;41.83;;;8.00;99.90;;;;;;4918629;29;20052;-78
2022/03/30 02:10:04;;;;;;;128.95;40.47;;;8.00;99.90;;;;;;4918852;29;20032;-78
2022/03/30 02:12:30;;;;;;;136.65;43.35;;;8.00;99.90;;;;;;4918631;29;20028;-78
2022/03/30 02:14:57;;;;;;;126.90;43.08;;;8.10;99.90;;;;;;4918386;29;20020;-78
2022/03/30 02:17:24;;;;;;;126.72;40.63;;;8.10;99.90;;;;;;4918629;29;20473;-78
2022/03/30 02:19:50;;;;;;;136.88;43.63;;;8.10;99.90;;;;;;4918457;29;20095;-78
2022/03/30 02:22:15;;;;;;;118.28;40.40;;;8.10;99.90;;;;;;4918494;29;20112;-78
2022/03/30 02:24:41;;;;;;;122.43;41.80;;;8.10;99.90;;;;;;4918552;29;20056;-78
2022/03/30 02:27:07;;;;;;;133.95;41.92;;;8.10;99.90;;;;;;4918121;29;20096;-79
2022/03/30 02:29:34;;;;;;;123.18;42.80;;;8.10;99.90;;;;;;4918143;29;20560;-78
2022/03/30 02:32:00;;;;;;;132.82;45.03;;;8.10;99.90;;;;;;4918067;29;20051;-78
2022/03/30 02:34:27;;;;;;;134.93;43.78;;;8.10;99.90;;;;;;4919784;29;20488;-78
2022/03/30 02:36:52;;;;;;;129.95;42.70;;;8.10;99.90;;;;;;4918151;29;20028;-78
2022/03/30 02:39:19;;;;;;;137.05;42.92;;;8.10;99.90;;;;;;4918233;29;20555;-78
2022/03/30 02:41:46;;;;;;;139.50;42.60;;;8.10;99.90;;;;;;4918193;29;20027;-79
2022/03/30 03:43:45;;;;;;;129.82;40.97;;;8.10;99.90;;;;;;5934658;23;20007;-78
2022/03/30 03:46:11;;;;;;;141.55;42.80;;;8.10;99.90;;;;;;4922185;29;20051;-78
2022/03/30 03:48:36;;;;;;;132.88;42.22;;;8.10;99.90;;;;;;4899856;29;20063;-78
2022/03/30 03:51:02;;;;;;;130.27;43.92;;;8.10;99.90;;;;;;4899903;29;20036;-78
2022/03/30 03:53:28;;;;;;;140.35;43.88;;;8.10;99.90;;;;;;4916790;29;20028;-78
2022/03/30 03:55:53;;;;;;;126.18;42.42;;;8.10;99.90;;;;;;4916822;29;20477;-78
2022/03/30 03:58:19;;;;;;;129.98;42.05;;;8.10;99.90;;;;;;4916789;29;20102;-79
2022/03/30 04:00:45;;;;;;;134.18;41.40;;;8.10;99.90;;;;;;4916090;29;20058;-77
2022/03/30 04:03:11;;;;;;;131.45;39.72;;;8.20;99.90;;;;;;4916684;29;20047;-78
2022/03/30 04:05:37;;;;;;;128.13;42.25;;;8.10;99.90;;;;;;4916896;29;20050;-79
2022/03/30 04:08:02;;;;;;;121.50;39.28;;;8.10;99.90;;;;;;4916514;29;20080;-78
2022/03/30 04:10:28;;;;;;;138.15;44.38;;;8.10;99.90;;;;;;4916407;29;20034;-78
2022/03/30 04:12:54;;;;;;;111.75;38.58;;;8.10;99.90;;;;;;4916302;29;20393;-78
2022/03/30 04:15:20;;;;;;;134.98;43.90;;;8.10;99.90;;;;;;4921486;29;20481;-78
2022/03/30 04:17:47;;;;;;;144.02;44.10;;;8.20;99.90;;;;;;4915802;29;20028;-78
2022/03/30 04:20:14;;;;;;;118.75;40.50;;;8.20;99.90;;;;;;4916071;29;20107;-78
2022/03/30 04:22:41;;;;;;;126.30;41.28;;;8.20;99.90;;;;;;4916082;29;20112;-78
2022/03/30 04:25:08;;;;;;;118.70;41.35;;;8.20;99.90;;;;;;4916052;29;20031;-78
2022/03/30 04:27:34;;;;;;;118.80;37.67;;;8.20;99.90;;;;;;4915718;29;20034;-78
2022/03/30 04:30:00;;;;;;;109.85;38.13;;;8.30;99.90;;;;;;4915675;29;20036;-78
2022/03/30 04:32:26;;;;;;;113.75;37.17;;;8.20;99.90;;;;;;4916168;29;20031;-78
2022/03/30 04:34:52;;;;;;;129.50;40.97;;;8.20;99.90;;;;;;4916270;29;20028;-78
2022/03/30 04:37:17;;;;;;;120.15;37.67;;;8.20;99.90;;;;;;4915977;29;20095;-79
2022/03/30 04:39:43;;;;;;;122.07;41.78;;;8.20;99.90;;;;;;4915772;29;20111;-79
2022/03/30 04:42:09;;;;;;;125.10;40.83;;;8.20;99.90;;;;;;4898789;29;20026;-79
2022/03/30 05:44:08;;;;;;;144.05;39.75;;;7.80;99.30;;;;;;5806065;23;20453;-76
2022/03/30 05:46:36;;;;;;;139.93;43.33;;;7.70;99.90;;;;;;4904435;29;20036;-77
2022/03/30 05:49:03;;;;;;;124.82;39.70;;;7.70;99.90;;;;;;4918760;29;20422;-77
2022/03/30 05:51:29;;;;;;;125.47;40.85;;;7.60;99.90;;;;;;4901710;29;20384;-77
2022/03/30 05:53:54;;;;;;;136.25;39.78;;;7.60;99.90;;;;;;4919221;29;20032;-76
2022/03/30 05:56:59;;;;;;;145.55;40.50;;;7.60;99.90;;;;;;4902123;29;20042;-76
2022/03/30 05:59:06;;;;;;;132.38;39.85;;;7.60;99.90;;;;;;4918493;29;20032;-77
2022/03/30 06:01:32;;;;;;;143.30;39.42;;;7.70;99.90;;;;;;4918751;29;20386;-76
2022/03/30 06:03:58;;;;;;;134.43;40.40;;;7.70;99.90;;;;;;4920136;29;20035;-77
2022/03/30 06:06:23;;;;;;;151.20;40.67;;;7.70;99.90;;;;;;4901983;29;20033;-77
2022/03/30 06:08:49;;;;;;;140.48;41.17;;;7.80;99.90;;;;;;4901826;29;20533;-77
2022/03/30 06:11:15;;;;;;;133.15;41.33;;;7.80;99.90;;;;;;4918744;29;20605;-76
2022/03/30 06:13:40;;;;;;;115.55;39.28;;;7.80;99.90;;;;;;4918673;29;20373;-77
2022/03/30 06:16:07;;;;;;;122.50;38.58;;;7.80;99.90;;;;;;4901349;29;20076;-76
2022/03/30 06:18:33;;;;;;;129.07;38.30;;;7.80;99.90;;;;;;4918647;29;20115;-76
2022/03/30 06:20:59;;;;;;;137.35;39.38;;;7.80;99.90;;;;;;4918941;29;20485;-77
2022/03/30 06:23:25;;;;;;;127.22;37.22;;;7.80;99.90;;;;;;4901533;29;20028;-74
2022/03/30 06:25:51;;;;;;;126.38;38.30;;;7.80;99.90;;;;;;4918568;29;20111;-77
2022/03/30 06:28:18;;;;;;;126.53;38.67;;;7.80;99.90;;;;;;4925407;29;20032;-77
2022/03/30 06:30:43;;;;;;;125.38;39.95;;;7.90;99.90;;;;;;4917988;29;20032;-76
2022/03/30 06:33:09;;;;;;;127.45;37.33;;;7.90;99.90;;;;;;4918062;29;20047;-76
2022/03/30 06:35:35;;;;;;;105.03;36.00;;;7.90;99.90;;;;;;4927014;29;20024;-77
2022/03/30 06:38:02;;;;;;;113.47;36.60;;;8.00;99.90;;;;;;4918048;29;20461;-77
2022/03/30 06:40:28;;;;;;;112.97;35.55;;;7.90;99.90;;;;;;4917241;29;20111;-76
2022/03/30 06:42:54;;;;;;;118.10;38.65;;;8.00;99.90;;;;;;4917104;29;20434;-77
2022/03/30 07:44:53;;;;;;;75.65;31.60;;;9.00;99.30;;;;;;5517099;23;20492;-76
2022/03/30 07:47:19;;;;;;;73.00;29.10;;;9.10;98.60;;;;;;4916880;29;20028;-76
2022/03/30 07:49:44;;;;;;;76.97;29.20;;;9.20;98.80;;;;;;4921453;29;20036;-76
2022/03/30 07:52:10;;;;;;;72.00;28.70;;;9.40;98.80;;;;;;4916250;29;20032;-76
2022/03/30 07:54:36;;;;;;;77.95;31.17;;;9.70;97.90;;;;;;4916864;29;20501;-76
2022/03/30 07:57:02;;;;;;;74.28;28.67;;;9.60;97.60;;;;;;4916799;29;20036;-78
2022/03/30 07:59:28;;;;;;;76.40;29.15;;;9.70;97.30;;;;;;4916843;29;20032;-77
2022/03/30 08:01:54;;;;;;;74.60;30.17;;;9.70;96.80;;;;;;4922883;29;20087;-78
2022/03/30 08:04:22;;;;;;;73.05;30.23;;;9.70;96.50;;;;;;4929418;29;20024;-78
2022/03/30 08:06:48;;;;;;;80.63;31.60;;;9.70;97.10;;;;;;4919278;29;20525;-78
2022/03/30 08:09:14;;;;;;;67.85;28.50;;;9.80;97.20;;;;;;4916183;29;20040;-76
2022/03/30 08:11:39;;;;;;;86.43;31.35;;;9.80;96.20;;;;;;4919046;29;20032;-77
2022/03/30 08:14:05;;;;;;;72.85;31.23;;;9.80;96.50;;;;;;4920316;29;20392;-78
2022/03/30 08:16:34;;;;;;;76.10;29.42;;;9.70;96.40;;;;;;4919366;29;20036;-78
2022/03/30 08:19:00;;;;;;;81.38;30.60;;;9.60;96.40;;;;;;4916287;29;20028;-77
2022/03/30 08:24:10;;;;;;;83.97;32.50;;;9.60;96.60;;;;;;4924959;29;20066;-78
2022/03/30 08:26:37;;;;;;;72.28;31.15;;;9.70;97.10;;;;;;4916879;29;20060;-78
2022/03/30 08:29:05;;;;;;;84.15;31.25;;;9.70;96.70;;;;;;4916493;29;20724;-78
2022/03/30 08:31:31;;;;;;;82.40;31.23;;;9.90;96.80;;;;;;4920284;29;20488;-78
2022/03/30 08:33:57;;;;;;;69.63;30.02;;;9.80;96.10;;;;;;4915675;29;20028;-78
2022/03/30 08:36:22;;;;;;;75.63;30.15;;;9.80;96.20;;;;;;4915897;29;20445;-78
2022/03/30 08:38:48;;;;;;;73.68;31.42;;;9.90;96.20;;;;;;4922525;29;20025;-78
2022/03/30 08:41:14;;;;;;;84.10;32.63;;;9.90;96.30;;;;;;4915801;29;20024;-78
2022/03/30 08:43:41;;;;;;;75.15;30.83;;;10.00;96.50;;;;;;4915192;29;20066;-78
2022/03/30 09:45:40;;;;;;;78.25;34.13;;;13.10;84.80;;;;;;5202999;23;20497;-76
2022/03/30 09:48:17;;;;;;;71.88;34.63;;;13.60;79.60;;;;;;4931050;29;20031;-76
2022/03/30 09:50:48;;;;;;;74.05;33.97;;;13.90;78.10;;;;;;4932290;29;20039;-76
2022/03/30 09:53:16;;;;;;;78.53;34.13;;;13.90;74.20;;;;;;4932423;29;20035;-77
2022/03/30 09:55:53;;;;;;;72.10;34.80;;;14.00;79.20;;;;;;4930306;29;20034;-78
2022/03/30 09:58:20;;;;;;;73.97;35.60;;;13.90;77.60;;;;;;4932160;29;20036;-77
2022/03/30 10:01:01;;;;;;;77.43;35.00;;;14.00;75.70;;;;;;4926067;29;20083;-78
2022/03/30 10:03:36;;;;;;;79.72;35.00;;;13.90;75.00;;;;;;4932102;29;20024;-78
2022/03/30 10:06:02;;;;;;;71.18;35.80;;;13.90;77.00;;;;;;4932760;29;20024;-78
2022/03/30 10:08:28;;;;;;;75.47;35.80;;;14.10;74.00;;;;;;4932841;29;20032;-78
2022/03/30 10:10:54;;;;;;;73.15;34.00;;;14.30;73.80;;;;;;4932750;29;20043;-78
2022/03/30 10:13:20;;;;;;;73.63;34.33;;;14.20;75.00;;;;;;4932365;29;20093;-78
2022/03/30 10:15:47;;;;;;;72.55;35.65;;;14.60;74.00;;;;;;4933345;29;20118;-77
2022/03/30 10:18:13;;;;;;;66.93;31.23;;;15.10;71.40;;;;;;4936299;29;20059;-78
2022/03/30 10:20:39;;;;;;;67.40;31.58;;;15.20;70.30;;;;;;4919247;29;20431;-77
2022/03/30 10:23:31;;;;;;;62.55;30.65;;;15.70;69.70;;;;;;4936509;29;20059;-78
2022/03/30 10:26:15;;;;;;;69.25;31.90;;;16.00;70.00;;;;;;4935411;29;20027;-78
2022/03/30 10:28:40;;;;;;;73.35;32.03;;;16.40;67.40;;;;;;4935271;29;20036;-78
2022/03/30 10:31:07;;;;;;;65.10;30.00;;;16.90;68.10;;;;;;4934767;29;20090;-78
2022/03/30 10:33:32;;;;;;;62.58;30.88;;;17.90;67.00;;;;;;4919066;29;20024;-78
2022/03/30 10:36:00;;;;;;;61.60;30.65;;;18.40;64.40;;;;;;4936179;29;20047;-78
2022/03/30 10:38:26;;;;;;;60.95;29.48;;;18.40;60.90;;;;;;4935960;29;20460;-78
2022/03/30 10:41:10;;;;;;;62.28;29.75;;;19.70;57.10;;;;;;4935842;29;20507;-78
2022/03/30 10:43:36;;;;;;;58.97;31.55;;;20.10;52.60;;;;;;4930164;29;20042;-78
2022/03/30 11:45:35;;;;;;;52.92;28.23;;;21.40;46.10;;;;;;5290638;23;20052;-75
2022/03/30 11:48:07;;;;;;;58.25;31.35;;;21.00;45.40;;;;;;4899751;29;20039;-75
2022/03/30 11:50:49;;;;;;;53.85;28.25;;;19.10;48.20;;;;;;4900148;29;20048;-75
2022/03/30 11:53:23;;;;;;;56.92;28.58;;;20.10;49.30;;;;;;4917031;29;20107;-75
2022/03/30 11:55:56;;;;;;;51.53;27.88;;;21.30;47.80;;;;;;4916967;29;20032;-75
2022/03/30 11:58:28;;;;;;;49.88;27.83;;;23.00;41.10;;;;;;4916474;29;20028;-75
2022/03/30 12:00:56;;;;;;;49.50;27.10;;;22.00;44.00;;;;;;4893305;29;20028;-75
2022/03/30 12:03:23;;;;;;;50.40;28.77;;;22.20;42.90;;;;;;4900035;29;20486;-75
2022/03/30 12:05:54;;;;;;;46.65;26.30;;;22.20;45.50;;;;;;4917101;29;20024;-75
2022/03/30 12:08:20;;;;;;;54.88;28.83;;;22.50;45.30;;;;;;4916567;29;20016;-75
2022/03/30 12:10:48;;;;;;;55.85;30.90;;;21.70;43.50;;;;;;4899854;29;20042;-75
2022/03/30 12:13:21;;;;;;;48.30;28.30;;;21.20;45.90;;;;;;4899306;29;20084;-75
2022/03/30 12:15:47;;;;;;;52.35;28.40;;;21.10;44.60;;;;;;4916312;29;20665;-75
2022/03/30 12:18:12;;;;;;;50.85;29.13;;;20.70;43.20;;;;;;4916206;29;20048;-75
2022/03/30 12:20:38;;;;;;;49.75;31.20;;;20.90;46.10;;;;;;4899711;29;20020;-75
2022/03/30 12:23:06;;;;;;;51.75;30.25;;;21.20;44.30;;;;;;4916228;29;20032;-75
2022/03/30 12:25:33;;;;;;;50.97;29.20;;;21.40;44.60;;;;;;4916307;29;20026;-75
2022/03/30 12:28:00;;;;;;;49.35;29.83;;;21.50;44.00;;;;;;4916543;29;20043;-75
2022/03/30 12:30:30;;;;;;;55.17;31.30;;;19.90;46.60;;;;;;4916290;29;20028;-75
2022/03/30 12:32:57;;;;;;;50.25;29.13;;;20.30;47.40;;;;;;4916664;29;20024;-75
2022/03/30 12:35:28;;;;;;;53.78;29.73;;;21.30;45.50;;;;;;4892500;29;20048;-75
2022/03/30 12:38:05;;;;;;;54.42;31.10;;;21.30;44.80;;;;;;4916351;29;20473;-75
2022/03/30 12:40:34;;;;;;;50.58;28.45;;;22.60;43.50;;;;;;4916303;29;20087;-75
2022/03/30 12:43:00;;;;;;;52.40;30.75;;;22.50;43.90;;;;;;4899074;29;20071;-75
2022/03/30 13:45:34;;;;;;;54.70;31.98;;;18.60;50.60;;;;;;5367860;23;20056;-74
2022/03/30 13:48:01;;;;;;;55.28;30.85;;;18.00;51.60;;;;;;4916112;29;20028;-75
2022/03/30 13:50:27;;;;;;;51.75;28.50;;;17.50;52.20;;;;;;4933820;29;20031;-75
2022/03/30 13:52:53;;;;;;;54.00;27.77;;;17.20;53.40;;;;;;4937330;29;20035;-75
2022/03/30 13:55:21;;;;;;;47.90;26.80;;;17.30;55.40;;;;;;4937137;29;20051;-75
2022/03/30 13:57:49;;;;;;;46.65;25.70;;;17.60;54.60;;;;;;4937059;29;20031;-75
2022/03/30 14:00:17;;;;;;;49.75;27.20;;;17.50;52.50;;;;;;4936511;29;20705;-75
2022/03/30 14:02:43;;;;;;;50.10;28.05;;;17.50;53.00;;;;;;4937237;29;20028;-75
2022/03/30 14:05:10;;;;;;;47.80;26.65;;;17.40;52.10;;;;;;4936364;29;20620;-75
2022/03/30 14:07:36;;;;;;;56.80;33.10;;;17.30;54.10;;;;;;4936662;29;20035;-75
2022/03/30 14:10:02;;;;;;;60.35;34.00;;;16.90;54.90;;;;;;4919731;29;20030;-75
2022/03/30 14:12:28;;;;;;;63.70;35.33;;;16.60;56.30;;;;;;4936894;29;20421;-75
2022/03/30 14:14:54;;;;;;;69.85;34.67;;;16.20;57.20;;;;;;4919419;29;20151;-75
2022/03/30 14:17:21;;;;;;;66.20;34.95;;;16.10;58.10;;;;;;4936774;29;20051;-75
2022/03/30 14:19:48;;;;;;;68.43;35.55;;;15.80;59.30;;;;;;4936569;29;20031;-75
2022/03/30 14:22:14;;;;;;;65.35;35.00;;;15.50;60.00;;;;;;4936788;29;20031;-75
2022/03/30 14:24:40;;;;;;;66.18;34.55;;;15.20;60.80;;;;;;4936598;29;20052;-75
2022/03/30 14:27:06;;;;;;;65.05;32.95;;;14.70;62.30;;;;;;4936299;29;20031;-75
2022/03/30 14:29:32;;;;;;;66.57;34.60;;;14.40;63.90;;;;;;4935833;29;20035;-75
2022/03/30 14:31:58;;;;;;;70.03;34.92;;;14.40;63.90;;;;;;4935920;29;20067;-75
2022/03/30 14:34:24;;;;;;;62.20;31.52;;;14.20;64.40;;;;;;4936731;29;20027;-75
2022/03/30 14:36:50;;;;;;;61.95;31.90;;;14.30;65.40;;;;;;4918797;29;20036;-75
2022/03/30 14:39:16;;;;;;;61.40;32.08;;;14.70;64.90;;;;;;4936288;29;20032;-75
2022/03/30 14:41:41;;;;;;;63.90;30.98;;;14.90;64.00;;;;;;4936174;29;20031;-75
2022/03/30 15:46:26;;;;;;;66.68;29.48;;;11.30;97.40;;;;;;5027595;23;20055;-77
2022/03/30 15:48:52;;;;;;;85.45;31.67;;;10.50;99.90;;;;;;4912723;29;20067;-77
2022/03/30 15:51:18;;;;;;;91.00;35.45;;;10.00;99.90;;;;;;4927554;29;20066;-77
2022/03/30 15:53:44;;;;;;;78.22;32.83;;;9.70;99.90;;;;;;4912573;29;20110;-78
2022/03/30 15:56:13;;;;;;;87.47;34.90;;;9.70;99.90;;;;;;4930147;29;20031;-78
2022/03/30 15:58:39;;;;;;;80.63;31.70;;;9.60;99.90;;;;;;4928170;29;20027;-78
2022/03/30 16:01:06;;;;;;;68.00;30.52;;;9.50;99.90;;;;;;4930216;29;20035;-77
2022/03/30 16:03:33;;;;;;;93.50;36.88;;;9.30;99.90;;;;;;4926415;29;20035;-76
2022/03/30 16:06:00;;;;;;;92.72;33.78;;;9.20;99.90;;;;;;4927372;29;20114;-75
2022/03/30 16:13:54;;;;;;;92.28;34.63;;;9.30;99.90;;;;;;4930320;29;20030;-74
2022/03/30 16:16:21;;;;;;;89.07;33.10;;;9.30;99.90;;;;;;4930691;29;20032;-74
2022/03/30 16:18:46;;;;;;;86.90;34.55;;;9.30;99.90;;;;;;4931070;29;20319;-74
2022/03/30 16:21:12;;;;;;;92.57;35.35;;;9.40;99.90;;;;;;4930917;29;20886;-74
2022/03/30 16:23:38;;;;;;;77.30;33.10;;;9.40;99.90;;;;;;4930624;29;20028;-74
2022/03/30 16:26:04;;;;;;;76.15;34.35;;;9.30;99.90;;;;;;4930125;29;20480;-74
2022/03/30 16:28:34;;;;;;;98.05;36.97;;;9.30;99.90;;;;;;4929991;29;20036;-75
2022/03/30 16:31:00;;;;;;;93.32;36.00;;;9.20;99.90;;;;;;4930333;29;20043;-76
2022/03/30 16:33:26;;;;;;;71.55;33.03;;;9.30;99.90;;;;;;4929451;29;20023;-75
2022/03/30 16:35:52;;;;;;;91.65;35.38;;;9.30;99.90;;;;;;4930545;29;20043;-74
2022/03/30 16:38:18;;;;;;;83.65;33.28;;;9.10;99.90;;;;;;4930393;29;20039;-74
2022/03/30 16:40:44;;;;;;;84.10;33.83;;;9.10;99.90;;;;;;4930269;29;20035;-74
2022/03/30 16:43:10;;;;;;;79.03;31.88;;;9.30;99.90;;;;;;4929146;29;20088;-75
2022/03/30 17:44:54;;;;;;;75.82;30.60;;;8.80;99.90;;;;;;5814242;23;20165;-76
2022/03/30 17:47:20;;;;;;;73.63;30.77;;;8.90;99.90;;;;;;4925186;29;20095;-76
2022/03/30 17:52:31;;;;;;;70.90;31.13;;;9.00;99.90;;;;;;4920880;29;20092;-77
2022/03/30 17:54:57;;;;;;;70.75;29.20;;;9.00;99.30;;;;;;4924595;29;20106;-78
2022/03/30 17:57:23;;;;;;;66.30;29.67;;;9.00;99.90;;;;;;4925779;29;20106;-75
2022/03/30 17:59:49;;;;;;;71.50;30.73;;;9.00;99.90;;;;;;4904519;29;20048;-78
2022/03/30 18:02:18;;;;;;;71.88;29.45;;;8.90;99.90;;;;;;4924254;29;20055;-78
2022/03/30 18:04:44;;;;;;;75.43;30.00;;;8.90;99.90;;;;;;4909636;29;20030;-78
2022/03/30 18:07:09;;;;;;;65.30;28.45;;;8.90;99.90;;;;;;4921709;29;20024;-78
2022/03/30 18:09:35;;;;;;;58.58;27.75;;;9.00;99.90;;;;;;4924956;29;20083;-77
2022/03/30 18:12:01;;;;;;;66.03;28.25;;;9.10;99.90;;;;;;4925072;29;20051;-78
2022/03/30 18:14:28;;;;;;;62.50;28.02;;;9.10;99.90;;;;;;4921210;29;20103;-77
2022/03/30 18:16:55;;;;;;;67.03;29.38;;;9.10;99.80;;;;;;4924906;29;20020;-78
2022/03/30 18:19:21;;;;;;;65.75;29.35;;;9.00;99.90;;;;;;4907548;29;20020;-78
2022/03/30 18:21:47;;;;;;;56.65;26.85;;;9.00;99.90;;;;;;4904670;29;20024;-78
2022/03/30 18:24:14;;;;;;;65.22;28.83;;;9.00;99.70;;;;;;4925399;29;20620;-78
2022/03/30 18:26:41;;;;;;;59.58;28.05;;;9.00;99.90;;;;;;4923992;29;20024;-78
2022/03/30 18:29:07;;;;;;;65.32;27.58;;;9.00;99.90;;;;;;4918629;29;20103;-78
2022/03/30 18:31:32;;;;;;;60.80;27.33;;;8.90;99.90;;;;;;4916483;29;20038;-78
2022/03/30 18:33:59;;;;;;;64.35;28.55;;;8.90;99.90;;;;;;4925711;29;20032;-79
2022/03/30 18:36:25;;;;;;;67.63;29.58;;;8.90;99.90;;;;;;4917223;29;20600;-77
2022/03/30 18:38:51;;;;;;;72.00;29.70;;;8.80;99.50;;;;;;4926974;29;20094;-76
2022/03/30 18:41:17;;;;;;;66.25;30.25;;;8.80;99.90;;;;;;4925101;29;20115;-77
2022/03/30 18:43:43;;;;;;;77.35;31.27;;;8.90;99.90;;;;;;4923679;29;20028;-79
2022/03/30 18:46:15;;;;;;;73.07;32.08;;;8.80;99.90;;;;;;4948811;23;20047;-76
2022/03/30 18:48:42;;;;;;;76.40;31.00;;;8.70;99.90;;;;;;4941715;29;20019;-76
2022/03/30 18:51:08;;;;;;;63.15;30.15;;;8.60;99.90;;;;;;4941628;29;20044;-76
2022/03/30 18:53:33;;;;;;;64.72;29.23;;;8.60;99.90;;;;;;4935487;29;20521;-76
2022/03/30 18:55:59;;;;;;;72.00;30.17;;;8.60;99.90;;;;;;4934481;29;20032;-76
2022/03/30 18:58:27;;;;;;;66.07;29.30;;;8.50;99.90;;;;;;4935580;29;20469;-76
2022/03/30 19:00:53;;;;;;;70.68;30.80;;;8.50;99.90;;;;;;4935681;29;20016;-76
2022/03/30 19:03:19;;;;;;;78.90;33.50;;;8.40;99.90;;;;;;4949514;29;20089;-76
2022/03/30 19:05:45;;;;;;;72.93;32.65;;;8.40;99.90;;;;;;4944103;29;20024;-76
2022/03/30 19:08:15;;;;;;;75.38;31.83;;;8.50;99.90;;;;;;4944962;29;20023;-76
2022/03/30 19:10:41;;;;;;;75.35;33.17;;;8.40;99.90;;;;;;4952430;29;20122;-75
2022/03/30 19:13:11;;;;;;;81.07;35.00;;;8.40;99.90;;;;;;4943597;29;20035;-76
2022/03/30 19:15:38;;;;;;;69.45;30.42;;;8.40;99.90;;;;;;4934888;29;20034;-76
2022/03/30 19:18:05;;;;;;;65.18;29.63;;;8.40;99.90;;;;;;4938122;29;20016;-76
2022/03/30 19:20:31;;;;;;;64.35;29.50;;;8.50;99.70;;;;;;4953556;29;20023;-76
2022/03/30 19:22:57;;;;;;;64.53;27.50;;;8.60;98.70;;;;;;4953210;29;20053;-76
2022/03/30 19:25:23;;;;;;;64.78;28.45;;;8.70;97.80;;;;;;4953789;29;20081;-76
2022/03/30 19:27:53;;;;;;;68.30;29.20;;;8.70;98.50;;;;;;4953073;29;20023;-76
2022/03/30 19:30:19;;;;;;;62.90;27.83;;;8.70;98.70;;;;;;4952975;29;20118;-76
2022/03/30 19:32:46;;;;;;;62.95;27.55;;;8.70;97.90;;;;;;4953594;29;20037;-76
2022/03/30 19:35:13;;;;;;;73.10;29.08;;;8.70;97.30;;;;;;4941729;29;20036;-76
2022/03/30 19:37:39;;;;;;;72.28;31.88;;;8.80;96.30;;;;;;4931409;29;20027;-77
2022/03/30 19:40:06;;;;;;;72.28;28.33;;;8.80;98.00;;;;;;4931110;29;20635;-76
2022/03/30 19:42:33;;;;;;;68.13;28.80;;;8.80;97.00;;;;;;4936953;29;20118;-76
2022/03/30 21:15:36;;;;;;;18.23;9.93;;;7.40;96.10;;;;;;5525820;23;19930;-79
2022/03/30 21:18:09;;;;;;;18.33;9.75;;;7.40;96.50;;;;;;4899826;29;20496;-77
2022/03/30 21:20:37;;;;;;;19.35;10.40;;;7.40;96.70;;;;;;4917797;29;20035;-77
2022/03/30 21:23:04;;;;;;;15.93;9.77;;;7.30;96.00;;;;;;4923324;29;20070;-76
2022/03/30 21:25:29;;;;;;;19.10;9.25;;;7.30;95.40;;;;;;4915432;29;20032;-77
2022/03/30 21:27:55;;;;;;;21.38;10.02;;;7.30;96.50;;;;;;4918397;29;20091;-76
2022/03/30 21:30:22;;;;;;;14.68;8.82;;;7.20;96.00;;;;;;4921073;29;20417;-76
2022/03/30 21:32:47;;;;;;;12.90;8.45;;;7.20;95.80;;;;;;4922254;29;20020;-76
2022/03/30 21:35:13;;;;;;;16.30;9.95;;;7.20;97.10;;;;;;4920106;29;20433;-76
2022/03/30 21:37:40;;;;;;;14.30;9.10;;;7.20;97.00;;;;;;4918683;29;20016;-76
2022/03/30 21:40:08;;;;;;;15.18;8.75;;;7.20;97.50;;;;;;4921630;29;20024;-76
2022/03/30 21:42:34;;;;;;;15.43;8.73;;;7.10;96.20;;;;;;4921146;29;20477;-76
2022/03/30 21:45:01;;;;;;;17.13;9.52;;;7.10;96.40;;;;;;4919093;29;20058;-75
2022/03/30 21:47:27;;;;;;;14.05;8.20;;;7.10;97.10;;;;;;4914000;29;20055;-76
2022/03/30 21:49:52;;;;;;;16.20;8.63;;;7.00;97.00;;;;;;4896775;29;20074;-76
2022/03/30 21:52:18;;;;;;;13.68;8.60;;;7.00;97.40;;;;;;4913209;29;20033;-76
2022/03/30 21:54:45;;;;;;;15.85;8.77;;;7.00;97.50;;;;;;4914023;29;20021;-75
2022/03/30 21:57:11;;;;;;;14.95;8.00;;;6.90;97.20;;;;;;4914151;29;20099;-75
2022/03/30 21:59:37;;;;;;;12.73;8.00;;;6.80;98.30;;;;;;4914033;29;20477;-76
2022/03/30 22:02:02;;;;;;;9.27;5.35;;;6.80;98.40;;;;;;4897096;29;20031;-75
2022/03/30 22:04:28;;;;;;;7.25;4.82;;;6.70;97.80;;;;;;4914467;29;20119;-75
2022/03/30 22:06:54;;;;;;;5.68;4.32;;;6.60;97.70;;;;;;4913582;29;20614;-75
2022/03/30 22:09:20;;;;;;;6.03;4.72;;;6.40;97.20;;;;;;4914565;29;20040;-76
2022/03/30 22:11:46;;;;;;;8.90;5.00;;;6.30;98.20;;;;;;4915645;29;20119;-75
2022/03/30 22:14:12;;;;;;;5.27;3.63;;;6.10;97.40;;;;;;4917718;29;20032;-75
2022/03/30 22:16:40;;;;;;;7.90;4.97;;;6.10;98.90;;;;;;4917437;29;20489;-75
2022/03/30 22:19:10;;;;;;;7.30;5.53;;;6.00;98.20;;;;;;4901448;29;20028;-76
2022/03/30 22:21:37;;;;;;;9.13;5.20;;;5.90;98.20;;;;;;4917639;29;20031;-76
2022/03/30 22:24:04;;;;;;;6.43;4.43;;;5.90;99.10;;;;;;4918023;29;20359;-76
2022/03/30 22:26:30;;;;;;;5.83;4.70;;;5.80;98.20;;;;;;4917957;29;20032;-75
2022/03/30 22:28:57;;;;;;;5.57;4.43;;;5.80;99.10;;;;;;4917819;29;20020;-75
2022/03/30 22:36:52;;;;;;;2.90;2.60;;;5.50;97.80;;;;;;4917562;29;20035;-75
2022/03/30 22:39:18;;;;;;;3.60;2.80;;;5.40;96.50;;;;;;4917805;29;20020;-76
2022/03/30 22:41:44;;;;;;;2.40;2.20;;;5.30;98.00;;;;;;4917412;29;20133;-75
2022/03/30 22:44:10;;;;;;;2.70;2.07;;;5.20;97.30;;;;;;4917534;29;20143;-75
2022/03/30 22:46:36;;;;;;;2.10;2.00;;;5.10;97.10;;;;;;4917169;29;20032;-74
2022/03/30 22:49:02;;;;;;;2.20;2.00;;;5.10;97.30;;;;;;4931001;29;20106;-75
2022/03/30 22:51:28;;;;;;;2.20;2.10;;;4.90;97.50;;;;;;4917133;29;20033;-75
2022/03/30 22:53:53;;;;;;;2.07;1.97;;;4.90;96.90;;;;;;4917151;29;20028;-76
2022/03/30 22:56:21;;;;;;;2.07;1.87;;;4.80;98.30;;;;;;4917111;29;20032;-76
2022/03/30 22:58:47;;;;;;;3.23;1.57;;;4.70;98.30;;;;;;4917080;29;20557;-76
2022/03/30 23:01:13;;;;;;;1.53;1.43;;;4.70;98.10;;;;;;4916747;29;20109;-76
2022/03/30 23:03:39;;;;;;;1.80;1.70;;;4.60;98.30;;;;;;4917074;29;20079;-76
2022/03/30 23:08:48;;;;;;;3.07;2.00;;;4.50;97.60;;;;;;4916696;29;20496;-76
2022/03/30 23:11:14;;;;;;;1.67;1.57;;;4.50;98.10;;;;;;4916571;29;20040;-75
2022/03/30 23:13:40;;;;;;;4.20;1.90;;;4.50;99.20;;;;;;4917114;29;20511;-75
